Time;durP1;ratioP1;P1;durP2;ratioP2;P2;SDS_P1;SDS_P2;PMS_P1;PMS_P2;Temp;Humidity;BMP_temperature;BMP_pressure;BME280_temperature;BME280_humidity;BME280_pressure;Samples;Min_cycle;Max_cycle;Signal;HPM_P1;HPM_P2
2023/03/29 00:00:24;;;;;;;9.40;6.63;;;;;;;5.74;74.36;98385.03;7346485;19;20020;-69
2023/03/29 00:02:49;;;;;;;10.30;6.53;;;;;;;5.93;73.93;98381.09;7341769;19;20025;-70
2023/03/29 00:05:15;;;;;;;10.25;6.10;;;;;;;6.04;73.32;98379.34;7342656;19;20007;-70
2023/03/29 00:07:40;;;;;;;9.98;5.90;;;;;;;5.96;73.33;98376.44;7339271;19;20026;-71
2023/03/29 00:10:06;;;;;;;9.85;5.43;;;;;;;6.07;73.13;98376.50;7343274;19;20006;-70
2023/03/29 00:12:31;;;;;;;7.50;4.80;;;;;;;6.03;72.83;98380.31;7342072;19;20019;-72
2023/03/29 00:14:57;;;;;;;8.13;5.60;;;;;;;5.86;73.39;98370.09;7345412;19;20015;-71
2023/03/29 00:17:21;;;;;;;9.70;5.97;;;;;;;5.81;73.54;98365.13;7344020;19;20014;-70
2023/03/29 00:19:46;;;;;;;8.75;3.45;;;;;;;6.05;73.12;98370.47;7344145;19;20501;-71
2023/03/29 00:22:11;;;;;;;8.75;4.80;;;;;;;6.11;72.78;98366.50;7349996;19;20014;-70
2023/03/29 00:24:38;;;;;;;8.50;4.75;;;;;;;5.95;72.64;98364.16;7348192;19;20014;-68
2023/03/29 00:27:03;;;;;;;7.60;5.10;;;;;;;5.98;72.61;98363.91;7350092;19;20010;-66
2023/03/29 00:29:28;;;;;;;5.93;3.88;;;;;;;6.18;72.50;98355.38;7351522;19;20021;-70
2023/03/29 00:31:53;;;;;;;8.27;5.00;;;;;;;6.07;72.14;98365.91;7348457;19;20019;-69
2023/03/29 00:34:23;;;;;;;11.07;6.55;;;;;;;5.98;72.21;98352.53;7348620;19;20007;-68
2023/03/29 00:36:49;;;;;;;7.63;4.18;;;;;;;5.97;72.49;98364.06;7349949;19;20010;-71
2023/03/29 00:39:14;;;;;;;8.75;5.95;;;;;;;5.94;72.34;98357.19;7348856;19;20346;-67
2023/03/29 00:41:39;;;;;;;6.00;4.43;;;;;;;6.14;72.20;98342.47;7349721;19;20347;-67
2023/03/29 00:44:03;;;;;;;9.00;5.45;;;;;;;5.90;72.29;98346.91;7349006;19;20457;-69
2023/03/29 00:46:30;;;;;;;4.90;3.53;;;;;;;6.00;72.55;98361.16;7348181;19;20074;-69
2023/03/29 00:49:08;;;;;;;11.15;6.35;;;;;;;5.84;72.90;98356.13;7346155;19;20393;-68
2023/03/29 00:51:36;;;;;;;8.73;5.40;;;;;;;5.73;73.13;98358.72;7346850;19;20441;-70
2023/03/29 00:54:05;;;;;;;7.25;4.78;;;;;;;5.66;73.40;98344.22;7354285;19;20014;-68
2023/03/29 00:56:35;;;;;;;6.28;4.30;;;;;;;5.79;72.97;98345.03;7351478;19;20847;-68
2023/03/29 00:59:05;;;;;;;8.18;5.78;;;;;;;5.87;72.83;98339.19;7354107;19;20031;-70
2023/03/29 01:02:01;;;;;;;8.77;5.43;;;;;;;5.71;73.14;98347.41;7354375;19;20006;-71
2023/03/29 01:04:35;;;;;;;7.60;4.47;;;;;;;5.66;73.15;98336.28;7352683;19;20015;-68
2023/03/29 01:07:12;;;;;;;5.05;3.72;;;;;;;5.88;73.00;98341.75;7353145;19;20085;-72
2023/03/29 01:09:40;;;;;;;6.55;4.20;;;;;;;5.74;72.96;98340.09;7349740;19;20018;-76
2023/03/29 01:12:18;;;;;;;6.95;5.45;;;;;;;5.72;73.15;98325.28;7350904;19;20018;-74
2023/03/29 01:14:52;;;;;;;12.23;4.70;;;;;;;5.70;73.04;98337.78;7344131;19;20106;-71
2023/03/29 01:17:20;;;;;;;7.57;5.20;;;;;;;5.61;73.32;98325.22;7347017;19;20014;-79
2023/03/29 01:19:50;;;;;;;5.10;3.70;;;;;;;5.78;73.23;98328.31;7348541;19;20014;-70
2023/03/29 01:22:24;;;;;;;7.63;4.60;;;;;;;5.58;73.26;98321.00;7350700;19;20022;-67
2023/03/29 01:24:52;;;;;;;;;;;;;;;5.70;73.13;98319.25;7350961;19;20022;-70
2023/03/29 01:27:39;;;;;;;7.68;3.88;;;;;;;5.88;72.96;98310.00;7348948;19;19923;-69
2023/03/29 01:30:11;;;;;;;6.78;4.82;;;;;;;5.67;73.11;98320.31;7347323;19;20018;-67
2023/03/29 01:32:46;;;;;;;6.70;3.85;;;;;;;5.62;73.54;98309.25;7348514;19;20014;-67
2023/03/29 01:35:21;;;;;;;7.03;3.80;;;;;;;5.70;73.51;98306.88;7346389;19;20018;-68
2023/03/29 01:38:14;;;;;;;6.93;3.30;;;;;;;5.85;73.04;98297.00;7348339;19;20006;-68
2023/03/29 01:40:38;;;;;;;4.45;2.88;;;;;;;5.76;72.99;98301.13;7348581;19;20033;-67
2023/03/29 01:43:21;;;;;;;4.78;3.83;;;;;;;5.91;72.87;98298.34;7348571;19;20023;-69
2023/03/29 01:45:48;;;;;;;8.00;4.95;;;;;;;5.68;72.88;98294.72;7345490;19;20041;-67
2023/03/29 01:48:17;;;;;;;4.50;3.22;;;;;;;5.80;72.77;98297.31;7349927;19;20082;-68
2023/03/29 01:50:57;;;;;;;8.13;4.05;;;;;;;5.85;72.89;98286.41;7347712;19;20009;-68
2023/03/29 01:53:29;;;;;;;7.00;3.63;;;;;;;5.57;73.24;98295.50;7348765;19;20738;-69
2023/03/29 01:55:57;;;;;;;5.47;3.58;;;;;;;5.63;73.24;98312.75;7349097;19;20465;-67
2023/03/29 01:58:28;;;;;;;7.57;4.10;;;;;;;5.77;72.93;98289.59;7345496;19;20046;-66
2023/03/29 02:00:54;;;;;;;6.10;4.18;;;;;;;5.78;73.06;98269.28;7346417;19;20021;-66
2023/03/29 02:03:21;;;;;;;7.18;4.25;;;;;;;5.74;72.93;98278.44;7345298;19;20007;-66
2023/03/29 02:05:46;;;;;;;5.53;3.25;;;;;;;5.65;73.25;98290.50;7345112;19;20382;-67
2023/03/29 02:08:13;;;;;;;5.78;4.47;;;;;;;5.70;73.31;98285.72;7348762;19;20060;-68
2023/03/29 02:10:38;;;;;;;7.22;4.07;;;;;;;5.67;73.13;98280.66;7351984;19;20006;-67
2023/03/29 02:13:04;;;;;;;6.72;4.13;;;;;;;5.72;73.05;98269.75;7351336;19;20015;-68
2023/03/29 02:15:31;;;;;;;6.40;3.53;;;;;;;5.61;73.29;98277.63;7353409;19;20006;-69
2023/03/29 02:17:55;;;;;;;8.95;5.05;;;;;;;5.84;72.81;98271.50;7356120;19;20025;-74
2023/03/29 02:20:26;;;;;;;10.18;5.35;;;;;;;5.64;73.09;98269.50;7345449;19;20017;-63
2023/03/29 02:23:07;;;;;;;7.32;4.97;;;;;;;5.74;73.22;98266.06;7351525;19;20046;-67
2023/03/29 02:25:32;;;;;;;8.02;4.70;;;;;;;5.69;72.96;98264.69;7352697;19;20014;-70
2023/03/29 02:27:57;;;;;;;5.57;3.67;;;;;;;5.64;73.24;98270.34;7349519;19;20021;-66
2023/03/29 02:30:27;;;;;;;5.88;4.43;;;;;;;5.72;73.39;98261.81;7349577;19;20070;-69
2023/03/29 02:33:09;;;;;;;6.57;4.10;;;;;;;5.68;73.31;98253.28;7351947;19;20011;-68
2023/03/29 02:35:44;;;;;;;7.03;4.93;;;;;;;5.60;73.55;98257.44;7347378;19;20092;-67
2023/03/29 02:38:10;;;;;;;8.95;5.85;;;;;;;5.67;73.23;98248.94;7345880;19;20018;-69
2023/03/29 02:40:37;;;;;;;11.85;5.25;;;;;;;5.51;73.78;98247.53;7348209;19;20462;-68
2023/03/29 02:43:03;;;;;;;4.60;2.88;;;;;;;5.66;73.56;98249.88;7347102;19;20343;-69
2023/03/29 02:45:29;;;;;;;8.07;5.25;;;;;;;5.63;73.51;98244.84;7345928;19;20062;-69
2023/03/29 02:47:58;;;;;;;8.82;5.20;;;;;;;5.45;73.80;98235.59;7344088;19;20039;-68
2023/03/29 02:50:28;;;;;;;4.22;3.40;;;;;;;5.69;73.82;98248.81;7343460;19;20015;-69
2023/03/29 02:52:58;;;;;;;5.80;3.28;;;;;;;5.66;73.59;98241.97;7345187;19;20042;-69
2023/03/29 02:55:30;;;;;;;7.20;4.32;;;;;;;5.63;73.73;98234.28;7348854;19;20050;-67
2023/03/29 02:57:55;;;;;;;8.02;5.53;;;;;;;5.61;73.56;98224.75;7345040;19;20022;-67
2023/03/29 03:00:22;;;;;;;7.97;5.05;;;;;;;5.74;73.14;98228.19;7347056;19;20006;-66
2023/03/29 03:02:46;;;;;;;7.78;4.40;;;;;;;5.89;73.19;98235.00;7345634;19;20032;-65
2023/03/29 03:05:11;;;;;;;4.57;3.22;;;;;;;6.05;72.43;98224.97;7347144;19;20018;-67
2023/03/29 03:07:36;;;;;;;6.28;4.30;;;;;;;5.87;72.55;98231.59;7345387;19;20012;-65
2023/03/29 03:10:02;;;;;;;6.72;4.68;;;;;;;5.83;72.52;98227.50;7346086;19;20018;-66
2023/03/29 03:12:27;;;;;;;6.43;4.47;;;;;;;5.78;73.00;98224.34;7347721;19;20410;-64
2023/03/29 03:14:52;;;;;;;6.05;4.47;;;;;;;5.89;72.79;98215.63;7345028;19;20045;-66
2023/03/29 03:17:21;;;;;;;6.63;4.22;;;;;;;5.92;72.47;98216.25;7342585;19;20018;-66
2023/03/29 03:19:48;;;;;;;8.85;4.53;;;;;;;5.83;72.33;98217.75;7340216;19;20003;-64
2023/03/29 03:22:14;;;;;;;6.80;4.68;;;;;;;5.80;72.65;98217.13;7339645;19;20058;-65
2023/03/29 03:24:38;;;;;;;8.07;4.30;;;;;;;5.91;72.34;98219.00;7339788;19;20410;-64
2023/03/29 03:27:03;;;;;;;7.47;4.63;;;;;;;5.90;72.45;98207.59;7339370;19;20414;-65
2023/03/29 03:29:31;;;;;;;5.40;2.85;;;;;;;5.78;72.87;98203.19;7341807;19;20018;-73
2023/03/29 03:32:20;;;;;;;5.78;3.65;;;;;;;5.75;72.89;98219.31;7342388;19;20482;-66
2023/03/29 03:35:06;;;;;;;5.35;3.72;;;;;;;5.92;72.68;98226.84;7339143;19;20443;-73
2023/03/29 03:37:31;;;;;;;6.35;3.95;;;;;;;6.04;72.29;98214.50;7340128;19;20030;-69
2023/03/29 03:39:55;;;;;;;4.43;2.90;;;;;;;6.03;72.34;98208.34;7342311;19;20010;-68
2023/03/29 03:42:21;;;;;;;5.75;4.15;;;;;;;5.86;72.50;98208.78;7343737;19;20047;-68
2023/03/29 03:44:47;;;;;;;6.63;4.65;;;;;;;6.06;72.78;98245.16;7340460;19;20094;-68
2023/03/29 03:47:44;;;;;;;4.90;3.67;;;;;;;6.16;72.10;98202.97;7340239;19;20039;-68
2023/03/29 03:50:21;;;;;;;8.82;4.82;;;;;;;5.99;72.22;98216.63;7340591;19;20086;-67
2023/03/29 03:52:46;;;;;;;5.05;3.40;;;;;;;6.08;72.14;98205.38;7339221;19;20011;-69
2023/03/29 03:55:13;;;;;;;9.07;4.20;;;;;;;6.05;72.23;98211.72;7341182;19;20011;-68
2023/03/29 03:57:46;;;;;;;8.20;4.40;;;;;;;6.04;72.00;98207.41;7340437;19;20018;-68
2023/03/29 04:00:20;;;;;;;9.80;4.80;;;;;;;5.98;72.17;98197.25;7338481;19;20011;-68
2023/03/29 04:02:55;;;;;;;6.88;4.53;;;;;;;6.07;72.47;98220.41;7340898;19;20029;-67
2023/03/29 04:05:19;;;;;;;9.32;4.32;;;;;;;6.30;71.53;98205.41;7341272;19;19998;-68
2023/03/29 04:07:45;;;;;;;4.40;2.65;;;;;;;6.33;71.65;98214.91;7342264;19;20015;-67
2023/03/29 04:10:36;;;;;;;6.78;3.92;;;;;;;6.34;71.41;98185.66;7336789;19;20462;-68
2023/03/29 04:13:08;;;;;;;8.70;3.92;;;;;;;6.26;71.51;98193.38;7337001;19;20015;-67
2023/03/29 04:15:48;;;;;;;4.38;3.20;;;;;;;6.35;71.29;98197.09;7338110;19;20019;-68
2023/03/29 04:18:13;;;;;;;6.25;3.80;;;;;;;6.21;71.47;98181.47;7345113;19;20015;-68
2023/03/29 04:20:46;;;;;;;8.30;4.60;;;;;;;6.25;71.45;98178.44;7346584;19;20021;-68
2023/03/29 04:23:14;;;;;;;6.28;4.30;;;;;;;6.31;71.42;98185.09;7348185;19;20362;-70
2023/03/29 04:25:41;;;;;;;10.15;4.72;;;;;;;6.34;71.30;98187.47;7342239;19;20006;-68
2023/03/29 04:28:26;;;;;;;6.95;4.60;;;;;;;6.43;70.67;98173.56;7339924;19;20047;-66
2023/03/29 04:31:04;;;;;;;5.82;3.90;;;;;;;6.44;70.62;98204.31;7339064;19;20007;-68
2023/03/29 04:33:35;;;;;;;11.10;4.68;;;;;;;6.33;70.98;98177.84;7337381;19;20025;-67
2023/03/29 04:35:59;;;;;;;7.68;3.28;;;;;;;6.57;70.63;98174.13;7336565;19;20014;-68
2023/03/29 04:38:25;;;;;;;6.88;4.85;;;;;;;6.43;70.81;98178.84;7339420;19;20025;-68
2023/03/29 04:40:54;;;;;;;6.95;4.25;;;;;;;6.42;70.82;98198.34;7337194;19;20022;-68
2023/03/29 04:43:31;;;;;;;12.57;3.17;;;;;;;6.63;70.50;98182.56;7337113;19;20013;-67
2023/03/29 04:46:06;;;;;;;;;;;;;;;6.69;69.97;98185.56;7342045;19;20006;-66
2023/03/29 04:48:57;;;;;;;8.27;4.40;;;;;;;6.43;70.66;98174.38;7340375;19;19923;-65
2023/03/29 04:51:32;;;;;;;8.38;5.05;;;;;;;6.43;70.73;98169.06;7338832;19;20010;-68
2023/03/29 04:53:58;;;;;;;7.75;4.78;;;;;;;6.42;70.88;98172.69;7339593;19;20018;-69
2023/03/29 04:56:23;;;;;;;9.07;3.47;;;;;;;6.62;70.87;98189.66;7340324;19;20035;-67
2023/03/29 04:59:06;;;;;;;7.88;4.10;;;;;;;6.62;70.39;98184.38;7348476;19;20035;-67
2023/03/29 05:01:31;;;;;;;5.43;3.30;;;;;;;6.95;69.38;98178.22;7338445;19;20007;-67
2023/03/29 05:03:56;;;;;;;4.80;3.50;;;;;;;6.77;69.68;98188.44;7338577;19;20101;-67
2023/03/29 05:06:30;;;;;;;4.47;3.35;;;;;;;6.79;69.64;98164.50;7345215;19;20010;-67
2023/03/29 05:08:55;;;;;;;6.35;4.72;;;;;;;6.74;69.46;98166.69;7345610;19;20388;-67
2023/03/29 05:11:28;;;;;;;8.80;4.70;;;;;;;6.66;69.85;98163.81;7345306;19;20038;-66
2023/03/29 05:13:54;;;;;;;5.45;4.10;;;;;;;6.83;69.78;98173.88;7345462;19;20014;-67
2023/03/29 05:16:20;;;;;;;6.20;4.38;;;;;;;6.77;69.83;98184.97;7346861;19;20010;-65
2023/03/29 05:18:46;;;;;;;9.27;5.28;;;;;;;6.76;69.66;98170.91;7344003;19;20016;-67
2023/03/29 05:21:12;;;;;;;6.80;4.45;;;;;;;6.77;69.64;98177.03;7344671;19;20019;-68
2023/03/29 05:23:40;;;;;;;7.10;4.35;;;;;;;6.69;69.87;98167.03;7344843;19;20014;-69
2023/03/29 05:26:06;;;;;;;6.00;3.55;;;;;;;6.81;70.28;98179.31;7345967;19;20005;-68
2023/03/29 05:28:32;;;;;;;12.50;4.80;;;;;;;6.78;69.66;98171.59;7344241;19;20442;-67
2023/03/29 05:31:01;;;;;;;11.20;3.80;;;;;;;6.99;69.30;98179.66;7343937;19;20370;-68
2023/03/29 05:33:26;;;;;;;8.88;4.55;;;;;;;6.93;69.16;98183.63;7344024;19;20502;-68
2023/03/29 05:36:17;;;;;;;4.28;3.08;;;;;;;6.98;69.65;98190.38;7344792;19;20358;-66
2023/03/29 05:38:48;;;;;;;9.85;4.53;;;;;;;7.11;69.27;98177.84;7342321;19;20010;-67
2023/03/29 05:41:14;;;;;;;8.60;4.28;;;;;;;7.12;68.76;98176.84;7343798;19;20036;-68
2023/03/29 05:43:59;;;;;;;7.72;4.25;;;;;;;7.24;69.17;98184.63;7343815;19;20021;-68
2023/03/29 05:46:27;;;;;;;11.07;3.05;;;;;;;7.43;68.34;98181.34;7343211;19;20026;-69
2023/03/29 05:48:54;;;;;;;12.27;4.47;;;;;;;7.38;68.24;98172.06;7343645;19;20043;-68
2023/03/29 05:51:32;;;;;;;3.15;2.10;;;;;;;7.42;68.51;98184.97;7343692;19;20121;-70
2023/03/29 05:53:57;;;;;;;9.27;4.93;;;;;;;7.30;68.10;98170.06;7343472;19;20018;-67
2023/03/29 05:56:22;;;;;;;5.43;3.65;;;;;;;7.40;68.12;98168.34;7343169;19;20010;-68
2023/03/29 05:58:48;;;;;;;11.98;4.22;;;;;;;7.42;67.96;98171.72;7346785;19;20034;-68
2023/03/29 06:01:16;;;;;;;11.80;4.32;;;;;;;7.59;67.34;98171.16;7345666;19;20021;-66
2023/03/29 06:04:04;;;;;;;6.32;3.97;;;;;;;7.62;67.09;98173.56;7344015;19;20017;-67
2023/03/29 06:06:37;;;;;;;7.30;4.25;;;;;;;7.56;67.23;98176.69;7345699;19;20022;-66
2023/03/29 06:09:02;;;;;;;5.22;3.45;;;;;;;7.65;67.60;98173.31;7346310;19;20014;-67
2023/03/29 06:11:46;;;;;;;4.65;3.42;;;;;;;7.76;66.64;98155.66;7345425;19;20034;-67
2023/03/29 06:14:23;;;;;;;5.25;3.33;;;;;;;7.64;66.41;98173.44;7343278;19;20023;-69
2023/03/29 06:16:56;;;;;;;7.60;4.30;;;;;;;7.63;66.49;98174.41;7341355;19;20022;-69
2023/03/29 06:19:21;;;;;;;4.55;3.47;;;;;;;7.75;66.37;98159.28;7341986;19;20077;-68
2023/03/29 06:21:46;;;;;;;5.63;3.83;;;;;;;7.85;66.24;98173.44;7345714;19;20018;-69
2023/03/29 06:24:16;;;;;;;5.88;3.67;;;;;;;7.74;66.18;98152.28;7342560;19;20021;-67
2023/03/29 06:26:46;;;;;;;5.93;3.28;;;;;;;7.72;66.75;98170.13;7342611;19;20509;-66
2023/03/29 06:29:12;;;;;;;7.47;4.13;;;;;;;7.70;66.29;98153.50;7342920;19;20014;-65
2023/03/29 06:31:39;;;;;;;7.45;4.95;;;;;;;7.60;66.79;98162.22;7343335;19;20461;-66
2023/03/29 06:34:07;;;;;;;8.23;3.72;;;;;;;7.71;66.60;98155.19;7343325;19;20348;-69
2023/03/29 06:36:56;;;;;;;6.22;3.92;;;;;;;7.62;66.90;98162.09;7342565;19;20007;-70
2023/03/29 06:39:21;;;;;;;7.57;4.57;;;;;;;7.70;67.17;98164.09;7344790;19;20094;-69
2023/03/29 06:41:52;;;;;;;15.23;4.45;;;;;;;7.68;67.15;98158.94;7346181;19;20140;-69
2023/03/29 06:44:27;;;;;;;6.95;3.60;;;;;;;7.81;66.71;98156.09;7342837;19;20028;-68
2023/03/29 06:46:59;;;;;;;10.00;4.68;;;;;;;7.80;67.10;98157.06;7343334;19;20032;-69
2023/03/29 06:49:25;;;;;;;9.93;4.38;;;;;;;7.70;67.29;98150.84;7342894;19;20114;-69
2023/03/29 06:52:19;;;;;;;8.60;4.40;;;;;;;7.64;68.13;98153.06;7340716;19;20370;-68
2023/03/29 06:54:45;;;;;;;5.03;3.33;;;;;;;7.81;67.80;98146.31;7342155;19;20343;-68
2023/03/29 06:57:11;;;;;;;7.38;3.70;;;;;;;7.67;68.40;98156.44;7343279;19;20074;-67
2023/03/29 06:59:36;;;;;;;4.35;2.45;;;;;;;7.93;68.06;98174.50;7340371;19;20074;-68
2023/03/29 07:02:22;;;;;;;9.00;3.67;;;;;;;7.88;68.59;98162.59;7341645;19;20018;-68
2023/03/29 07:04:55;;;;;;;9.35;3.90;;;;;;;7.52;69.43;98169.97;7341511;19;20037;-69
2023/03/29 07:07:42;;;;;;;4.97;3.53;;;;;;;7.26;70.73;98166.81;7341358;19;20014;-67
2023/03/29 07:10:24;;;;;;;8.20;4.07;;;;;;;7.28;71.17;98150.78;7342406;19;20201;-69
2023/03/29 07:13:16;;;;;;;7.03;4.25;;;;;;;7.08;71.68;98170.13;7342619;19;20037;-66
2023/03/29 07:15:42;;;;;;;5.38;3.03;;;;;;;7.14;72.10;98161.66;7341040;19;20014;-66
2023/03/29 07:18:17;;;;;;;6.45;3.95;;;;;;;7.16;72.17;98155.28;7342759;19;20006;-67
2023/03/29 07:20:42;;;;;;;6.20;4.07;;;;;;;7.08;72.41;98154.22;7338832;19;20043;-66
2023/03/29 07:23:08;;;;;;;5.72;3.72;;;;;;;7.25;72.35;98151.88;7338358;19;20035;-65
2023/03/29 07:25:33;;;;;;;10.52;5.43;;;;;;;6.84;73.47;98163.19;7340182;19;20398;-68
2023/03/29 07:27:57;;;;;;;8.73;4.85;;;;;;;6.86;73.64;98161.25;7338155;19;20359;-69
2023/03/29 07:30:26;;;;;;;4.40;3.13;;;;;;;6.82;74.05;98169.53;7337745;19;20010;-69
2023/03/29 07:32:53;;;;;;;8.50;4.50;;;;;;;6.70;74.72;98175.81;7338451;19;20010;-68
2023/03/29 07:35:26;;;;;;;9.90;5.00;;;;;;;6.50;75.63;98169.44;7338264;19;20019;-69
2023/03/29 07:37:53;;;;;;;7.97;4.45;;;;;;;6.59;75.83;98170.53;7337415;19;20014;-69
2023/03/29 07:40:22;;;;;;;7.00;5.18;;;;;;;6.41;76.67;98175.47;7336363;19;20044;-68
2023/03/29 07:42:55;;;;;;;4.88;4.03;;;;;;;6.65;76.63;98178.00;7338240;19;20010;-68
2023/03/29 07:45:23;;;;;;;10.30;5.25;;;;;;;6.53;76.91;98175.34;7337785;19;20014;-69
2023/03/29 07:47:58;;;;;;;8.13;4.97;;;;;;;6.47;77.21;98170.53;7337798;19;20104;-68
2023/03/29 07:50:31;;;;;;;8.23;4.32;;;;;;;6.69;77.32;98174.13;7339408;19;20074;-69
2023/03/29 07:52:59;;;;;;;5.38;3.92;;;;;;;6.67;77.52;98154.88;7339853;19;20114;-67
2023/03/29 07:55:25;;;;;;;9.38;5.07;;;;;;;6.68;77.77;98157.41;7340109;19;20014;-68
2023/03/29 07:57:58;;;;;;;10.98;4.10;;;;;;;6.76;77.58;98165.59;7340160;19;20484;-68
2023/03/29 08:00:23;;;;;;;7.85;4.40;;;;;;;7.00;77.78;98188.44;7338039;19;20517;-69
2023/03/29 08:03:09;;;;;;;7.15;4.28;;;;;;;6.88;77.11;98174.38;7341529;19;20019;-68
2023/03/29 08:05:35;;;;;;;7.35;4.30;;;;;;;6.90;77.03;98183.03;7340178;19;20494;-68
2023/03/29 08:08:08;;;;;;;6.18;4.30;;;;;;;6.87;76.71;98192.06;7339470;19;20017;-73
2023/03/29 08:10:46;;;;;;;5.22;3.50;;;;;;;6.96;76.35;98171.09;7339711;19;20022;-67
2023/03/29 08:17:09;;;;;;;;;;;;;;;7.27;75.42;98167.66;7338410;19;19945;-67
2023/03/29 08:19:39;;;;;;;8.70;4.53;;;;;;;7.20;75.52;98167.31;7335983;19;20466;-68
2023/03/29 08:22:06;;;;;;;3.92;2.55;;;;;;;7.55;74.78;98158.28;7336676;19;20010;-69
2023/03/29 08:24:56;;;;;;;8.52;4.60;;;;;;;7.60;73.88;98146.31;7336648;19;20515;-68
2023/03/29 08:27:25;;;;;;;6.25;3.63;;;;;;;7.64;73.51;98158.38;7338487;19;20455;-68
2023/03/29 08:29:51;;;;;;;6.82;4.38;;;;;;;7.57;73.94;98148.38;7350743;19;20025;-72
2023/03/29 08:32:16;;;;;;;4.32;3.75;;;;;;;7.80;73.55;98168.53;7342292;19;20025;-68
2023/03/29 08:38:21;;;;;;;5.45;3.58;;;;;;;7.75;73.70;98144.22;7337983;19;20014;-68
2023/03/29 08:40:48;;;;;;;7.07;3.33;;;;;;;7.82;73.71;98171.88;7343224;19;20473;-69
2023/03/29 08:43:24;;;;;;;7.80;4.88;;;;;;;7.89;73.20;98145.72;7344019;19;20042;-70
2023/03/29 08:46:25;;;;;;;9.27;4.20;;;;;;;7.80;73.59;98141.16;7343635;19;20011;-67
2023/03/29 08:49:01;;;;;;;7.00;3.95;;;;;;;7.82;74.01;98155.97;7348761;19;20055;-68
2023/03/29 08:51:30;;;;;;;2.97;2.40;;;;;;;7.71;73.93;98153.38;7343940;19;20105;-69
2023/03/29 08:54:01;;;;;;;6.75;4.05;;;;;;;7.43;74.92;98148.69;7347187;19;20082;-68
2023/03/29 08:56:37;;;;;;;4.63;2.75;;;;;;;7.46;75.28;98137.81;7346011;19;20585;-70
2023/03/29 08:59:14;;;;;;;3.80;2.65;;;;;;;7.56;75.43;98159.97;7345169;19;20086;-68
2023/03/29 09:01:39;;;;;;;8.88;4.45;;;;;;;7.38;76.24;98146.41;7345270;19;20011;-68
2023/03/29 09:04:22;;;;;;;5.55;3.00;;;;;;;7.54;76.76;98141.53;7349911;19;20018;-68
2023/03/29 09:06:57;;;;;;;6.45;4.15;;;;;;;7.27;77.15;98152.59;7345895;19;20003;-68
2023/03/29 09:09:31;;;;;;;10.05;4.50;;;;;;;7.28;77.80;98130.41;7345337;19;20018;-68
2023/03/29 09:12:16;;;;;;;6.82;4.10;;;;;;;7.18;78.45;98133.94;7345075;19;20020;-69
2023/03/29 09:14:53;;;;;;;5.93;3.50;;;;;;;7.29;78.50;98141.88;7345179;19;20015;-68
2023/03/29 09:17:43;;;;;;;8.48;6.20;;;;;;;7.19;78.86;98133.84;7345259;19;20048;-68
2023/03/29 09:20:17;;;;;;;5.32;3.92;;;;;;;7.20;79.23;98137.31;7343266;19;20022;-67
2023/03/29 09:22:57;;;;;;;6.80;4.00;;;;;;;7.15;79.61;98147.44;7346038;19;20346;-66
2023/03/29 09:25:36;;;;;;;5.53;3.90;;;;;;;7.19;79.56;98139.13;7345176;19;20043;-67
2023/03/29 09:28:16;;;;;;;7.63;3.25;;;;;;;7.32;79.74;98154.03;7345480;19;20019;-66
2023/03/29 09:31:01;;;;;;;5.38;3.45;;;;;;;7.20;80.13;98153.22;7345360;19;20018;-66
2023/03/29 09:33:41;;;;;;;11.32;4.40;;;;;;;7.09;80.29;98143.50;7346215;19;20359;-67
2023/03/29 09:36:23;;;;;;;4.43;2.63;;;;;;;6.97;80.77;98151.59;7344851;19;20030;-66
2023/03/29 09:38:53;;;;;;;3.50;2.63;;;;;;;6.90;81.43;98138.81;7345156;19;20526;-66
2023/03/29 09:41:32;;;;;;;5.95;3.83;;;;;;;7.03;81.83;98151.09;7348237;19;20003;-66
2023/03/29 09:44:05;;;;;;;7.93;4.80;;;;;;;6.88;82.06;98148.69;7345867;19;20011;-68
2023/03/29 09:46:40;;;;;;;8.88;5.40;;;;;;;6.92;82.80;98151.94;7346327;19;20037;-68
2023/03/29 09:49:16;;;;;;;8.02;4.95;;;;;;;6.79;82.94;98136.19;7348806;19;20052;-68
2023/03/29 09:51:48;;;;;;;7.35;4.18;;;;;;;6.89;83.30;98150.38;7344569;19;20014;-68
2023/03/29 09:54:13;;;;;;;13.88;4.88;;;;;;;6.79;83.60;98144.13;7348803;19;20088;-69
2023/03/29 09:56:59;;;;;;;5.43;3.50;;;;;;;6.98;83.64;98143.53;7349569;19;20580;-70
2023/03/29 09:59:23;;;;;;;5.90;3.03;;;;;;;6.93;83.88;98146.53;7344733;19;20018;-70
2023/03/29 10:01:48;;;;;;;5.97;3.53;;;;;;;6.92;84.16;98154.59;7345551;19;20025;-69
2023/03/29 10:04:15;;;;;;;7.15;4.32;;;;;;;6.75;84.71;98136.59;7347658;19;20026;-69
2023/03/29 10:06:49;;;;;;;6.57;4.53;;;;;;;6.95;84.88;98148.22;7344970;19;20350;-69
2023/03/29 10:09:23;;;;;;;7.20;4.75;;;;;;;6.80;85.31;98134.41;7346727;19;20022;-68
2023/03/29 10:12:02;;;;;;;10.65;4.82;;;;;;;6.80;85.60;98127.28;7350056;19;20014;-69
2023/03/29 10:14:51;;;;;;;8.40;4.50;;;;;;;6.76;86.00;98128.53;7347476;19;20021;-70
2023/03/29 10:17:21;;;;;;;6.97;4.65;;;;;;;6.89;85.92;98126.53;7344784;19;20401;-68
2023/03/29 10:19:56;;;;;;;8.25;3.63;;;;;;;7.08;85.78;98138.31;7345718;19;20573;-69
2023/03/29 10:22:22;;;;;;;7.10;4.97;;;;;;;6.86;85.98;98142.72;7346719;19;20014;-68
2023/03/29 10:24:52;;;;;;;3.42;2.75;;;;;;;7.10;86.03;98124.00;7346924;19;20477;-68
2023/03/29 10:27:24;;;;;;;7.85;4.55;;;;;;;6.94;86.02;98123.53;7355877;19;20341;-71
2023/03/29 10:29:50;;;;;;;6.18;4.15;;;;;;;7.06;86.11;98145.53;7358724;19;20022;-68
2023/03/29 10:32:33;;;;;;;4.70;3.95;;;;;;;7.05;86.02;98127.97;7359666;19;20014;-68
2023/03/29 10:35:09;;;;;;;6.93;3.70;;;;;;;6.87;86.11;98131.16;7354518;19;20082;-69
2023/03/29 10:37:34;;;;;;;10.38;5.43;;;;;;;6.80;86.49;98123.78;7345696;19;20553;-69
2023/03/29 10:39:59;;;;;;;6.90;4.60;;;;;;;7.07;86.41;98128.69;7347259;19;20360;-70
2023/03/29 10:42:25;;;;;;;8.65;4.75;;;;;;;6.99;86.18;98131.97;7348739;19;20045;-70
2023/03/29 10:44:58;;;;;;;7.32;4.63;;;;;;;7.05;86.19;98120.00;7345745;19;20017;-70
2023/03/29 10:47:24;;;;;;;7.13;4.60;;;;;;;6.97;86.08;98120.66;7354657;19;20027;-70
2023/03/29 10:50:00;;;;;;;8.27;5.05;;;;;;;7.14;86.11;98125.41;7349664;19;20011;-70
2023/03/29 10:52:25;;;;;;;9.60;5.65;;;;;;;6.88;86.02;98119.56;7360126;19;20021;-70
2023/03/29 10:54:55;;;;;;;9.10;4.78;;;;;;;6.83;86.50;98110.31;7355921;19;20010;-67
2023/03/29 10:57:39;;;;;;;5.95;4.15;;;;;;;6.87;86.97;98109.97;7352945;19;20006;-70
2023/03/29 11:00:17;;;;;;;4.70;3.63;;;;;;;7.07;86.85;98118.94;7343451;19;20014;-71
2023/03/29 11:02:57;;;;;;;5.65;4.25;;;;;;;7.19;86.82;98127.69;7354082;19;20022;-80
2023/03/29 11:05:30;;;;;;;16.77;5.47;;;;;;;7.05;87.19;98120.00;7355314;19;20003;-71
2023/03/29 11:08:11;;;;;;;6.70;4.32;;;;;;;6.98;87.42;98127.63;7342754;19;20028;-69
2023/03/29 11:10:42;;;;;;;8.32;4.70;;;;;;;6.88;87.88;98124.84;7347517;19;20010;-72
2023/03/29 11:13:47;;;;;;;14.32;6.93;;;;;;;6.88;88.10;98119.56;7346332;19;20029;-70
2023/03/29 11:16:47;;;;;;;8.40;5.30;;;;;;;6.88;88.10;98137.28;7348495;19;20454;-69
2023/03/29 11:19:15;;;;;;;11.38;5.00;;;;;;;6.84;88.46;98114.66;7345165;19;20010;-71
2023/03/29 11:21:41;;;;;;;6.97;5.10;;;;;;;6.79;88.78;98133.53;7350544;19;20003;-69
2023/03/29 11:24:51;;;;;;;8.93;5.30;;;;;;;6.80;89.49;98119.34;7347840;19;20018;-67
2023/03/29 11:27:30;;;;;;;10.43;4.75;;;;;;;6.72;89.79;98135.00;7346733;19;20002;-70
2023/03/29 11:30:09;;;;;;;7.88;4.97;;;;;;;6.88;89.95;98127.50;7348397;19;20025;-68
2023/03/29 11:33:00;;;;;;;9.65;6.20;;;;;;;6.71;90.25;98130.69;7348946;19;20078;-72
2023/03/29 11:35:34;;;;;;;6.32;4.55;;;;;;;6.80;90.51;98135.22;7352271;19;20010;-71
2023/03/29 11:38:17;;;;;;;11.05;5.63;;;;;;;6.68;90.64;98122.97;7349184;19;20087;-69
2023/03/29 11:41:17;;;;;;;8.90;5.82;;;;;;;6.74;91.02;98129.59;7349751;19;20014;-74
2023/03/29 11:43:45;;;;;;;10.82;5.00;;;;;;;6.75;90.87;98134.78;7350603;19;20018;-75
2023/03/29 11:46:25;;;;;;;9.00;5.63;;;;;;;6.96;91.06;98134.84;7354288;19;20014;-65
2023/03/29 11:48:55;;;;;;;9.75;6.35;;;;;;;6.80;90.99;98124.63;7346756;19;20046;-75
2023/03/29 11:51:53;;;;;;;12.50;6.38;;;;;;;6.76;91.13;98123.22;7344796;19;20470;-70
2023/03/29 11:54:30;;;;;;;6.45;4.97;;;;;;;6.91;91.53;98135.22;7341046;19;20044;-71
2023/03/29 11:57:00;;;;;;;4.18;3.47;;;;;;;7.08;90.68;98133.88;7343076;19;20017;-70
2023/03/29 11:59:33;;;;;;;7.25;4.60;;;;;;;6.95;90.55;98153.53;7343567;19;20039;-76
2023/03/29 12:02:11;;;;;;;9.43;5.43;;;;;;;6.82;90.67;98130.66;7346563;19;20013;-66
2023/03/29 12:04:45;;;;;;;9.80;4.90;;;;;;;6.80;91.00;98134.41;7349635;19;20007;-68
2023/03/29 12:07:25;;;;;;;6.75;4.03;;;;;;;6.92;91.53;98141.34;7354855;19;20082;-68
2023/03/29 12:09:57;;;;;;;8.55;5.40;;;;;;;6.82;91.51;98133.31;7353504;19;20010;-70
2023/03/29 12:12:40;;;;;;;9.95;5.20;;;;;;;6.93;91.97;98161.59;7349187;19;20416;-67